This is the latest recevied weather packets stored in our database for station/object EA2BK-11. If no packets are shown the sender has not sent any weather packets the latest 10 day(s).
| Time | Temp. | Humidity | Pressure | Rain* | Wind** | Luminosity | Snow |
|---|---|---|---|---|---|---|---|
| 1777161942 | 17.22° C | 53% | 950 hPa | - | - | - | - |
| 1777161037 | 17.22° C | 53% | 950 hPa | - | - | - | - |
| 1777160131 | 17.78° C | 52% | 950 hPa | - | - | - | - |
| 1777159226 | 17.78° C | 52% | 950 hPa | - | - | - | - |
| 1777158321 | 18.33° C | 51% | 950 hPa | - | - | - | - |
| 1777157416 | 18.33° C | 49% | 950 hPa | - | - | - | - |
| 1777156511 | 18.33° C | 50% | 950 hPa | - | - | - | - |
| 1777154700 | 20° C | 46% | 949 hPa | - | - | - | - |
| 1777153793 | 20.56° C | 44% | 949 hPa | - | - | - | - |
| 1777152888 | 20.56° C | 45% | 949 hPa | - | - | - | - |
| 1777151983 | 20.56° C | 45% | 949 hPa | - | - | - | - |
| 1777151077 | 21.11° C | 45% | 949 hPa | - | - | - | - |
| 1777150172 | 21.11° C | 44% | 949 hPa | - | - | - | - |
| 1777149267 | 21.11° C | 44% | 949 hPa | - | - | - | - |
| 1777148362 | 21.67° C | 44% | 949 hPa | - | - | - | - |
| 1777147457 | 22.22° C | 43% | 949 hPa | - | - | - | - |
| 1777146552 | 22.78° C | 41% | 949 hPa | - | - | - | - |
| 1777145646 | 23.89° C | 39% | 948 hPa | - | - | - | - |
| 1777144741 | 23.89° C | 39% | 948 hPa | - | - | - | - |
| 1777143836 | 24.44° C | 38% | 948 hPa | - | - | - | - |
| 1777142931 | 25° C | 37% | 948 hPa | - | - | - | - |
| 1777142026 | 25.56° C | 35% | 947 hPa | - | - | - | - |
| 1777141121 | 26.67° C | 32% | 947 hPa | - | - | - | - |
* Rain since midnight (hover to see other rain measurements)
** Current wind speed in m/s (hover to see current wind gust speed)